Home   Weather   Sydney Simpson Cliffs   Past weeks
Flag for Australia

Past Weather in Sydney Simpson Cliffs, Western Australia, Australia — Yesterday and Last 2 Weeks

Currently: 86 °F. Sunny. (Weather station: Kalgoorlie Boulder Amo, Australia). See more current weather

Past Weather in Sydney Simpson Cliffs — Graph

°F

Sydney Simpson Cliffs Temperature Yesterday

Maximum temperature yesterday: 95 °F (at 3:30 pm)
Minimum temperature yesterday: 66 °F (at 6:00 am)
Average temperature yesterday: 80 °F

High & Low Weather Summary for the Past Weeks

 TemperatureHumidityPressure
High115 °F (Feb 21, 12:30 pm)100% (Feb 25, 2:00 am)30.15 "Hg (Feb 25, 2:00 am)
Low59 °F (Feb 28, 3:30 am)5% (Feb 21, 12:30 pm)29.68 "Hg (Feb 21, 2:00 pm)
Average84 °F37%29.93 "Hg
* Reported Feb 15 12:00 pm — Mar 1 12:30 pm, Sydney Simpson Cliffs. Weather by CustomWeather, © 2024

Note: Actual official high and low records may vary slightly from our data, if they occured in-between our weather recording intervals... More about our weather records

Sydney Simpson Cliffs Weather History for the Previous 24 Hours

Scroll right to see more
 ConditionsComfort  
Time TempWeatherWind HumidityBarometerVisibility
12:30 pm
Fri, Mar 1
84 °FSunny.16 mph43%29.92 "HgN/A
12:00 pm84 °FSunny.15 mph40%29.92 "HgN/A
11:33 am82 °FSunny.18 mph42%29.92 "HgN/A
11:00 am81 °FSunny.18 mph42%29.92 "HgN/A
10:30 am79 °FSunny.18 mph45%29.95 "HgN/A
9:30 am75 °FSunny.22 mph47%29.95 "HgN/A
9:00 am75 °FSunny.23 mph47%29.95 "HgN/A
8:30 am73 °FSunny.22 mph53%29.95 "HgN/A
8:00 am72 °FSunny.22 mph57%29.95 "HgN/A
7:30 am70 °FSunny.21 mph60%29.95 "HgN/A
7:00 am68 °FSunny.18 mph60%29.92 "HgN/A
6:30 am68 °FSunny.16 mph56%29.92 "HgN/A
6:00 am68 °FSunny.15 mph53%29.92 "HgN/A
5:30 am68 °FClear.15 mph53%29.89 "HgN/A
5:00 am68 °FClear.15 mph49%29.89 "HgN/A
4:30 am68 °FClear.14 mph49%29.89 "HgN/A
4:00 am70 °FClear.13 mph43%29.89 "HgN/A
3:30 am70 °FClear.13 mph43%29.89 "HgN/A
3:00 am70 °FClear.13 mph43%29.89 "HgN/A
2:30 am72 °FClear.15 mph38%29.89 "HgN/A
2:00 am72 °FClear.16 mph38%29.89 "HgN/A
1:30 am73 °FClear.14 mph38%29.89 "HgN/A
1:00 am73 °FClear.16 mph41%29.89 "HgN/A
12:30 am75 °FClear.16 mph39%29.89 "HgN/A
12:00 am77 °FClear.17 mph36%29.89 "HgN/A
11:30 pm
Thu, Feb 29
77 °FClear.20 mph36%29.89 "HgN/A
11:00 pm79 °FClear.20 mph39%29.89 "HgN/A
10:00 pm82 °FClear.20 mph35%29.89 "HgN/A
9:30 pm82 °FClear.16 mph37%29.89 "HgN/A
9:00 pm84 °FClear.17 mph35%29.89 "HgN/A
8:30 pm84 °FClear.17 mph35%29.89 "HgN/A
8:00 pm86 °FClear.18 mph33%29.86 "HgN/A
7:30 pm86 °FClear.21 mph33%29.86 "HgN/A
7:00 pm88 °FClear.18 mph31%29.86 "HgN/A
6:30 pm88 °FClear.21 mph31%29.83 "HgN/A
6:00 pm90 °FSunny.20 mph29%29.83 "HgN/A
5:30 pm91 °FSunny.20 mph28%29.83 "HgN/A
5:00 pm91 °FSunny.17 mph28%29.80 "HgN/A
4:30 pm93 °FSunny.17 mph26%29.80 "HgN/A
4:00 pm95 °FSunny.17 mph25%29.80 "HgN/A
3:30 pm95 °FSunny.16 mph25%29.80 "HgN/A
3:00 pm93 °FSunny.16 mph26%29.80 "HgN/A
2:30 pm93 °FSunny.16 mph26%29.83 "HgN/A
2:00 pm93 °FPartly sunny.14 mph28%29.83 "HgN/A
1:30 pm91 °FScattered clouds.14 mph28%29.86 "HgN/A
Weather by CustomWeather, © 2024

See weather overview